LEVX/VGO METAR and TAF weather

Enter ICAO airport designator
Station Type Date Time Source
LEVX METAR 2019/12/09 13:30 UTC NOAA

LEVX 091330Z VRB02KT CAVOK 11/09 Q1032 NOSIG


Station Type Date Time Source
LEVX Decoded METAR 2019/12/09 13:30 UTC NOAA

Vigo / Peinador, Spain (LEVX) 42-13N 008-38W 255M
Dec 09, 2019 - 08:30 AM EST / 2019.12.09 1330 UTC
Wind: Variable at 2 MPH (2 KT):0
Visibility: greater than 7 mile(s):0
Temperature: 51 F (11 C)
Dew Point: 48 F (9 C)
Relative Humidity: 87%
Pressure (altimeter): 30.47 in. Hg (1032 hPa)
ob: LEVX 091330Z VRB02KT CAVOK 11/09 Q1032 NOSIG
cycle: 13

Station Type Date Time Source
LEVX TAF 2019/12/09 12:27 UTC NOAA

TAF LEVX 091100Z 0912/1012 36008KT 9999 SCT025 TX13/0914Z TN03/1005Z PROB40
TEMPO 1000/1009 0350 FG VV001

Example: see airport list